Central Oregon RPC :: GARDNERVILLE, NV

liberation: 2021-06-06  06:00     latitude: 38.937123     longitude: -119.738799 61 birds
# LOFT PRING MILES ARRIVAL SPEED ToWin
1 LUCAS CRAMER AU18-CORP-2247 397.332 2021-06-06 14:08:25.359 1431.759 00:00:00
2 LUCAS CRAMER AU20-CALA-0003 397.332 2021-06-06 14:08:36.167 1431.231 00:00:11
3 LUCAS CRAMER AU20-ARPU-56021 397.332 2021-06-06 14:08:50.847 1430.515 00:00:25
4 LUCAS CRAMER AU20-GUTZ-0219 397.332 2021-06-06 14:15:20.309 1411.769 00:06:55
5 TOPIGEONUSA AU19-CORP-5124 379.508 2021-06-06 14:00:07.702 1391.159 00:13:37
6 LUCAS CRAMER AU20-ZA-7650 397.332 2021-06-06 14:30:38.405 1369.465 00:22:13
7 LUCAS CRAMER AU20-GWC-0059 397.332 2021-06-06 14:30:40.030 1369.392 00:22:15
8 LUCAS CRAMER AU20-WPC-1528 397.332 2021-06-06 14:33:43.380 1361.247 00:25:18
9 RUETER FAMILY LOFT AU19-CORP-5330 406.941 2021-06-06 14:56:53.675 1333.998 00:36:40
10 LUCAS CRAMER AU19-LKC-4661 397.332 2021-06-06 14:46:25.758 1328.390 00:38:00
11 TOPIGEONUSA AU19-CORP-5134 379.508 2021-06-06 14:39:55.918 1284.658 00:53:25
12 TOPIGEONUSA AU17-CAPT-0054 379.508 2021-06-06 14:46:29.912 1268.636 00:59:59
13 LUCAS CRAMER CU20-CRPU-11568 397.332 2021-06-06 15:16:33.901 1256.464 01:08:09
14 LUCAS CRAMER AU20-AA-11668 397.332 2021-06-06 15:20:12.390 1248.296 01:11:47
15 RUETER FAMILY LOFT AU19-CORP-5477 406.941 2021-06-06 15:34:01.348 1247.714 01:13:47
16 RUETER FAMILY LOFT AU19-CORP-5447 406.941 2021-06-06 15:38:34.129 1237.910 01:18:20
17 TOPIGEONUSA AU19-CORP-4991 379.508 2021-06-06 15:00:39.442 1235.412 01:14:09
18 TIM GRAVES AU16-AUB-0602 371.498 2021-06-06 14:53:47.670 1224.884 01:17:08
19 RUETER FAMILY LOFT AU19-CORP-5455 406.941 2021-06-06 15:59:37.334 1194.446 01:39:23
20 LUCAS CRAMER AU19-LKC-4674 397.332 2021-06-06 15:52:14.901 1180.761 01:43:50
21 LUCAS CRAMER AU19-CORP-4110 397.332 2021-06-06 15:54:36.621 1176.070 01:46:11
22 TOPIGEONUSA AU20-CORP-4841 379.508 2021-06-06 15:31:17.226 1169.175 01:44:46
23 LUCAS CRAMER AU20-CORP-4245 397.332 2021-06-06 16:00:02.683 1165.419 01:51:37
24 TOPIGEONUSA AU19-CORP-4907 379.508 2021-06-06 15:41:59.086 1147.684 01:55:28
25 RUETER FAMILY LOFT AU19-CORP-5250 406.941 2021-06-06 16:32:44.502 1131.925 02:12:30
26 LUCAS CRAMER AU20-NEM-0634 397.332 2021-06-06 16:43:17.478 1087.072 02:34:52
27 LUCAS CRAMER AU20-PLAT-18413 397.332 2021-06-06 16:53:36.789 1069.905 02:45:11
28 LUCAS CRAMER AU20-LIAN-2034 397.332 2021-06-06 16:57:04.316 1064.273 02:48:39
29 RUETER FAMILY LOFT AU20-CORP-4574 406.941 2021-06-06 17:20:26.677 1052.571 03:00:13
30 TOPIGEONUSA AU19-CORP-4938 379.508 2021-06-06 16:37:39.683 1047.476 02:51:09
31 LUCAS CRAMER AU20-TBW-20076 397.332 2021-06-06 17:17:29.301 1032.200 03:09:04
32 TIM GRAVES AU17-FHI-0202 371.498 2021-06-06 16:41:07.853 1019.818 03:04:28
33 RUETER FAMILY LOFT AU18-CORP-2684 406.941 2021-06-06 18:09:33.352 981.715 03:49:19
34 TIM GRAVES AU17-CORP-2034 371.498 2021-06-06 18:03:27.012 903.775 04:26:47
35 RUETER FAMILY LOFT AU19-CORP-5377 406.941 2021-06-06 19:18:21.849 897.105 04:58:08
36 TIM GRAVES AU19-CBF-3498 371.498 2021-06-06 18:09:01.052 896.874 04:32:21
37 LUCAS CRAMER AU19-LKC-4663 397.332 2021-06-06 19:07:42.510 887.770 04:59:17
38 TOPIGEONUSA AU20-CORP-4830 379.508 2021-06-06 18:40:00.480 878.852 04:53:30
39 LUCAS CRAMER AU20-ARPU-30169 397.332 2021-06-06 19:49:49.028 842.720 05:41:24
40 TIM GRAVES AU15-ARPU-14510 371.498 2021-06-06 19:38:23.003 798.937 06:01:43
41 RUETER FAMILY LOFT AU20-CORP-4566 406.941 2021-06-07 06:45:55.775 720.168 08:14:17
42 RUETER FAMILY LOFT AU18-CORP-2744 406.941 2021-06-07 07:54:08.122 673.947 09:22:29
43 RUETER FAMILY LOFT AU20-CORP-4527 406.941 2021-06-07 08:57:07.824 636.233 10:25:29
44 RUETER FAMILY LOFT AU19-CORP-5456 406.941 2021-06-07 09:37:04.427 614.431 11:05:25
45 TOPIGEONUSA AU18-CORP-4253 379.508 2021-06-07 08:38:03.098 603.573 10:40:07
46 LUCAS CRAMER AU20-PUEB-20507 397.332 2021-06-07 12:34:42.307 520.591 14:14:52
47 TOPIGEONUSA AU19-CORP-5151 379.508 2021-06-07 13:11:44.408 483.897 15:13:49
48 LUCAS CRAMER AU20-TBW-20080 397.332 2021-06-07 19:16:40.518 400.688 20:56:50
LUCAS CRAMER AU17-CORP-1074 0 0000-00-00 00:00:00.000 0.000 00:00:00
LUCAS CRAMER AU18-CORP-2201 0 0000-00-00 00:00:00.000 0.000 00:00:00
LUCAS CRAMER AU20-ARPU-22504 0 0000-00-00 00:00:00.000 0.000 00:00:00
LUCAS CRAMER AU20-DBJ-1929 0 0000-00-00 00:00:00.000 0.000 00:00:00
LUCAS CRAMER AU20-GRPC-0547 0 0000-00-00 00:00:00.000 0.000 00:00:00
LUCAS CRAMER AU20-GSWC-0755 0 0000-00-00 00:00:00.000 0.000 00:00:00
LUCAS CRAMER AU20-HADJ-0025 0 0000-00-00 00:00:00.000 0.000 00:00:00
LUCAS CRAMER AU20-JEDD-14374 0 0000-00-00 00:00:00.000 0.000 00:00:00
LUCAS CRAMER AU20-NANZ-0042 0 0000-00-00 00:00:00.000 0.000 00:00:00
RUETER FAMILY LOFT AU19-CORP-5432 0 0000-00-00 00:00:00.000 0.000 00:00:00
RUETER FAMILY LOFT AU20-CORP-4683 0 0000-00-00 00:00:00.000 0.000 00:00:00
TIM GRAVES AU17-FHI-1014 0 0000-00-00 00:00:00.000 0.000 00:00:00
TOPIGEONUSA AU18-CORP-4205 0 0000-00-00 00:00:00.000 0.000 00:00:00